createdAt,value
2022-12-08T00:00:31.381Z,10.30
2022-12-08T00:02:04.724Z,9.43
2022-12-08T00:03:38.735Z,8.80
2022-12-08T00:05:30.940Z,9.13
2022-12-08T00:07:17.961Z,10.23
2022-12-08T00:09:09.308Z,9.77
2022-12-08T00:10:49.799Z,9.93
2022-12-08T00:12:23.207Z,8.50
2022-12-08T00:13:55.447Z,9.43
2022-12-08T00:15:28.670Z,9.20
2022-12-08T00:17:03.348Z,9.38
2022-12-08T00:18:36.128Z,7.78
2022-12-08T00:20:10.725Z,10.68
2022-12-08T00:21:45.426Z,8.82
2022-12-08T00:23:18.651Z,8.20
2022-12-08T00:24:51.801Z,11.98
2022-12-08T00:26:24.449Z,9.27
2022-12-08T00:27:57.772Z,9.65
2022-12-08T00:29:31.241Z,8.70
2022-12-08T00:31:09.961Z,8.80
2022-12-08T00:32:43.108Z,7.70
2022-12-08T00:34:17.021Z,10.85
2022-12-08T00:35:49.221Z,9.70
2022-12-08T00:37:23.716Z,8.90
2022-12-08T00:38:56.895Z,8.57
2022-12-08T00:40:30.044Z,8.90
2022-12-08T00:42:14.257Z,9.15
2022-12-08T00:43:47.353Z,9.77
2022-12-08T00:45:20.404Z,9.40
2022-12-08T00:46:52.661Z,10.43
2022-12-08T00:48:25.770Z,9.13
2022-12-08T00:49:58.887Z,9.95
2022-12-08T00:51:31.368Z,10.05
2022-12-08T00:53:05.789Z,11.98
2022-12-08T00:54:39.011Z,9.23
2022-12-08T00:56:12.090Z,10.15
2022-12-08T00:57:45.186Z,9.25
2022-12-08T00:59:18.759Z,10.48
2022-12-08T01:00:52.007Z,8.75
2022-12-08T01:02:25.721Z,9.32
2022-12-08T01:03:59.121Z,8.07
2022-12-08T01:05:32.194Z,9.60
2022-12-08T01:07:05.396Z,9.00
2022-12-08T01:08:41.496Z,9.90
2022-12-08T01:10:14.660Z,8.77
2022-12-08T01:11:48.320Z,9.82
2022-12-08T01:13:21.563Z,8.13
2022-12-08T01:14:57.970Z,8.35
2022-12-08T01:16:36.938Z,10.80
2022-12-08T01:18:10.113Z,8.63
2022-12-08T01:19:43.280Z,9.63
2022-12-08T01:21:16.262Z,9.20
2022-12-08T01:22:49.365Z,8.32
2022-12-08T01:24:24.092Z,8.77
2022-12-08T01:26:00.921Z,6.93
2022-12-08T01:27:34.068Z,8.73
2022-12-08T01:29:06.627Z,8.43
2022-12-08T01:30:40.491Z,8.93
2022-12-08T01:32:13.680Z,10.07
2022-12-08T01:33:47.641Z,7.35
2022-12-08T01:35:20.755Z,7.32
2022-12-08T01:36:53.908Z,9.48
2022-12-08T01:38:27.050Z,8.63
2022-12-08T01:40:01.782Z,7.30
2022-12-08T01:41:38.586Z,8.23
2022-12-08T01:43:16.979Z,7.88
2022-12-08T01:44:58.628Z,8.40
2022-12-08T01:46:34.533Z,7.15
2022-12-08T01:48:14.109Z,6.43
2022-12-08T01:49:48.756Z,8.93
2022-12-08T01:51:22.282Z,6.82
2022-12-08T01:53:00.447Z,7.38
2022-12-08T01:54:39.669Z,8.73
2022-12-08T01:56:21.173Z,7.05
2022-12-08T01:57:59.897Z,6.45
2022-12-08T01:59:38.481Z,6.32
2022-12-08T02:01:12.790Z,6.55
2022-12-08T02:02:54.453Z,7.47
2022-12-08T02:04:27.738Z,7.45
2022-12-08T02:06:00.896Z,7.53
2022-12-08T02:07:36.431Z,6.68
2022-12-08T02:09:10.615Z,6.60
2022-12-08T02:10:45.734Z,5.85
2022-12-08T02:12:20.236Z,9.50
2022-12-08T02:13:56.370Z,6.68
2022-12-08T02:15:39.881Z,6.70
2022-12-08T02:17:34.497Z,6.68
2022-12-08T02:19:55.560Z,5.28
2022-12-08T02:23:22.393Z,5.50
2022-12-08T02:25:09.953Z,6.45
2022-12-08T02:27:38.629Z,5.63
2022-12-08T02:29:59.748Z,7.43
2022-12-08T02:31:53.585Z,7.35
2022-12-08T02:34:02.243Z,5.55
2022-12-08T02:35:45.854Z,5.60
2022-12-08T02:37:29.269Z,6.45
2022-12-08T02:39:17.213Z,6.93
2022-12-08T02:41:05.192Z,5.05
2022-12-08T02:42:45.930Z,5.20
2022-12-08T02:46:04.866Z,4.65
2022-12-08T02:47:39.398Z,4.90
2022-12-08T02:49:15.174Z,5.90
2022-12-08T02:50:48.294Z,4.90
2022-12-08T02:52:43.000Z,4.72
2022-12-08T02:54:16.726Z,6.60
2022-12-08T02:56:04.147Z,6.03
2022-12-08T02:57:52.389Z,7.15
2022-12-08T02:59:41.660Z,6.03
2022-12-08T03:01:40.220Z,6.53
2022-12-08T03:03:30.551Z,6.45
2022-12-08T03:05:19.482Z,6.65
2022-12-08T03:07:12.281Z,6.57
2022-12-08T03:08:56.481Z,6.65
2022-12-08T03:10:38.056Z,4.97
2022-12-08T03:12:21.155Z,6.63
2022-12-08T03:14:00.012Z,6.85
2022-12-08T03:15:35.022Z,8.65
2022-12-08T03:17:09.674Z,8.13
2022-12-08T03:18:49.765Z,9.43
2022-12-08T03:20:27.208Z,7.65
2022-12-08T03:22:03.738Z,8.57
2022-12-08T03:23:37.858Z,6.70
2022-12-08T03:25:16.534Z,9.15
2022-12-08T03:26:56.827Z,10.10
2022-12-08T03:28:30.293Z,8.50
2022-12-08T03:30:03.430Z,8.82
2022-12-08T03:31:45.150Z,8.90
2022-12-08T03:33:25.862Z,10.25
2022-12-08T03:35:04.071Z,7.68
2022-12-08T03:36:38.545Z,9.00
2022-12-08T03:38:15.872Z,8.98
2022-12-08T03:39:49.369Z,10.05
2022-12-08T03:41:23.848Z,9.50
2022-12-08T03:42:57.021Z,10.30
2022-12-08T03:44:30.189Z,10.05
2022-12-08T03:46:02.570Z,9.98
2022-12-08T03:47:35.706Z,10.75
2022-12-08T03:49:08.873Z,11.77
2022-12-08T03:50:41.948Z,10.32
2022-12-08T03:52:16.460Z,10.20
2022-12-08T03:53:50.358Z,12.05
2022-12-08T03:55:23.500Z,9.60
2022-12-08T03:56:56.705Z,10.68
2022-12-08T03:58:31.824Z,10.75
2022-12-08T04:00:16.975Z,10.30
2022-12-08T04:01:50.161Z,10.73
2022-12-08T04:03:23.437Z,10.55
2022-12-08T04:04:56.601Z,9.70
2022-12-08T04:06:29.907Z,8.93
2022-12-08T04:08:04.495Z,9.65
2022-12-08T04:09:38.875Z,8.45
2022-12-08T04:11:12.880Z,11.35
2022-12-08T04:12:46.068Z,9.02
2022-12-08T04:14:19.122Z,8.95
2022-12-08T04:15:52.363Z,9.60
2022-12-08T04:17:25.579Z,8.52
2022-12-08T04:18:58.665Z,9.35
2022-12-08T04:20:30.849Z,10.75
2022-12-08T04:22:04.167Z,8.10
2022-12-08T04:23:38.951Z,9.25
2022-12-08T04:25:12.137Z,8.15
2022-12-08T04:26:45.847Z,8.35
2022-12-08T04:28:18.981Z,8.88
2022-12-08T04:29:52.137Z,10.25
2022-12-08T04:31:25.412Z,9.02
2022-12-08T04:32:58.606Z,7.53
2022-12-08T04:34:31.660Z,8.50
2022-12-08T04:36:06.351Z,8.15
2022-12-08T04:37:39.475Z,9.15
2022-12-08T04:39:13.921Z,8.38
2022-12-08T04:40:47.179Z,8.98
2022-12-08T04:42:20.297Z,7.72
2022-12-08T04:43:53.613Z,7.93
2022-12-08T04:45:26.754Z,7.68
2022-12-08T04:47:00.088Z,8.40
2022-12-08T04:48:33.435Z,8.00
2022-12-08T04:50:08.497Z,7.80
2022-12-08T04:53:15.195Z,6.07
2022-12-08T04:54:49.602Z,8.52
2022-12-08T04:56:23.044Z,7.25
2022-12-08T04:57:56.144Z,7.78
2022-12-08T04:59:29.329Z,7.40
2022-12-08T05:01:02.443Z,6.38
2022-12-08T05:02:35.786Z,10.38
2022-12-08T05:04:08.937Z,6.47
2022-12-08T05:05:43.590Z,8.85
2022-12-08T05:07:15.704Z,6.70
2022-12-08T05:08:48.933Z,7.25
2022-12-08T05:10:24.014Z,8.23
2022-12-08T05:13:30.470Z,6.65
2022-12-08T05:15:04.766Z,7.25
2022-12-08T05:16:39.273Z,8.00
2022-12-08T05:18:12.494Z,7.03
2022-12-08T05:19:46.233Z,6.65
2022-12-08T05:21:19.389Z,5.85
2022-12-08T05:22:52.682Z,6.90
2022-12-08T05:24:26.024Z,5.85
2022-12-08T05:26:00.804Z,5.65
2022-12-08T05:27:34.085Z,5.80
2022-12-08T05:29:07.280Z,7.05
2022-12-08T05:30:40.336Z,5.47
2022-12-08T05:32:13.426Z,6.55
2022-12-08T05:33:47.306Z,4.45
2022-12-08T05:35:20.416Z,6.30
2022-12-08T05:36:54.256Z,5.28
2022-12-08T05:38:29.327Z,4.80
2022-12-08T05:40:02.864Z,5.63
2022-12-08T05:41:37.542Z,4.95
2022-12-08T05:43:12.252Z,5.03
2022-12-08T05:44:45.528Z,5.57
2022-12-08T05:46:19.653Z,5.10
2022-12-08T05:47:54.571Z,5.45
2022-12-08T05:49:27.698Z,6.13
2022-12-08T05:51:01.072Z,5.20
2022-12-08T05:52:34.337Z,5.10
2022-12-08T05:54:07.616Z,4.97
2022-12-08T05:55:40.696Z,5.60
2022-12-08T05:57:15.140Z,5.82
2022-12-08T05:58:49.073Z,4.88
2022-12-08T06:00:22.938Z,3.75
2022-12-08T06:01:58.825Z,4.55
2022-12-08T06:03:32.074Z,5.43
2022-12-08T06:05:05.934Z,3.88
2022-12-08T06:06:39.443Z,4.53
2022-12-08T06:08:13.759Z,3.67
2022-12-08T06:09:46.974Z,4.20
2022-12-08T06:11:22.000Z,3.20
2022-12-08T06:14:29.651Z,3.10
2022-12-08T06:16:06.058Z,4.00
2022-12-08T06:17:39.282Z,3.33
2022-12-08T06:19:12.388Z,3.58
2022-12-08T06:20:45.541Z,3.80
2022-12-08T06:22:18.747Z,3.30
2022-12-08T06:23:53.946Z,4.30
2022-12-08T06:25:27.176Z,4.20
2022-12-08T06:27:01.235Z,2.97
2022-12-08T06:28:36.945Z,2.92
2022-12-08T06:30:10.844Z,2.97
2022-12-08T06:31:44.123Z,2.97
2022-12-08T06:33:17.265Z,3.17
2022-12-08T06:34:50.657Z,2.72
2022-12-08T06:36:27.028Z,2.58
2022-12-08T06:38:00.533Z,2.92
2022-12-08T06:39:33.752Z,2.67
2022-12-08T06:41:09.008Z,3.55
2022-12-08T06:42:44.063Z,2.70
2022-12-08T06:44:18.503Z,2.45
2022-12-08T06:45:51.873Z,3.20
2022-12-08T06:47:26.500Z,3.65
2022-12-08T06:48:59.879Z,3.05
2022-12-08T06:50:34.938Z,3.25
2022-12-08T06:53:42.473Z,3.10
2022-12-08T06:55:35.482Z,3.70
2022-12-08T06:57:09.119Z,3.78
2022-12-08T06:58:45.046Z,3.75
2022-12-08T07:00:23.871Z,3.00
2022-12-08T07:03:30.341Z,4.13
2022-12-08T07:05:03.473Z,4.75
2022-12-08T07:06:36.748Z,3.60
2022-12-08T07:08:10.843Z,3.60
2022-12-08T07:09:44.143Z,3.45
2022-12-08T07:11:21.849Z,3.53
2022-12-08T07:12:55.741Z,3.80
2022-12-08T07:14:29.190Z,3.63
2022-12-08T07:16:07.772Z,4.00
2022-12-08T07:17:40.962Z,3.97
2022-12-08T07:19:14.142Z,4.13
2022-12-08T07:20:47.313Z,4.47
2022-12-08T07:22:20.568Z,4.57
2022-12-08T07:23:57.615Z,5.50
2022-12-08T07:25:31.214Z,4.32
2022-12-08T07:27:04.583Z,4.22
2022-12-08T07:28:40.681Z,3.80
2022-12-08T07:30:15.256Z,4.60
2022-12-08T07:31:49.866Z,4.35
2022-12-08T07:33:24.100Z,4.95
2022-12-08T07:34:57.180Z,5.20
2022-12-08T07:36:30.315Z,5.25
2022-12-08T07:38:03.508Z,6.53
2022-12-08T07:39:36.741Z,4.80
2022-12-08T07:41:14.369Z,6.15
2022-12-08T07:42:47.554Z,5.00
2022-12-08T07:44:21.065Z,4.07
2022-12-08T07:45:54.568Z,4.80
2022-12-08T07:47:29.450Z,4.25
2022-12-08T07:49:02.575Z,4.63
2022-12-08T07:50:35.915Z,4.22
2022-12-08T07:52:09.166Z,4.15
2022-12-08T07:53:45.279Z,4.43
2022-12-08T07:55:20.859Z,4.32
2022-12-08T07:56:54.130Z,3.90
2022-12-08T07:58:28.065Z,4.38
2022-12-08T08:00:01.439Z,3.95
2022-12-08T08:02:21.366Z,3.95
2022-12-08T08:03:52.642Z,4.53
2022-12-08T08:05:25.854Z,4.47
2022-12-08T08:06:59.024Z,4.15
2022-12-08T08:08:33.028Z,4.70
2022-12-08T08:10:08.406Z,4.35
2022-12-08T08:11:41.671Z,4.00
2022-12-08T08:13:15.294Z,5.47
2022-12-08T08:14:48.666Z,4.10
2022-12-08T08:16:22.397Z,3.78
2022-12-08T08:17:57.331Z,4.88
2022-12-08T08:19:30.682Z,3.97
2022-12-08T08:21:22.123Z,3.22
2022-12-08T08:22:57.591Z,5.35
2022-12-08T08:24:30.694Z,4.53
2022-12-08T08:26:06.035Z,4.72
2022-12-08T08:27:39.152Z,4.00
2022-12-08T08:29:12.340Z,3.80
2022-12-08T08:30:47.561Z,4.20
2022-12-08T08:32:21.531Z,3.70
2022-12-08T08:33:58.014Z,4.68
2022-12-08T08:35:31.209Z,3.72
2022-12-08T08:37:04.497Z,4.25
2022-12-08T08:38:39.883Z,4.13
2022-12-08T08:40:13.649Z,4.25
2022-12-08T08:41:46.754Z,3.72
2022-12-08T08:43:37.900Z,3.83
2022-12-08T08:45:12.639Z,4.60
2022-12-08T08:46:45.841Z,3.75
2022-12-08T08:48:19.057Z,4.80
2022-12-08T08:49:53.636Z,3.25
2022-12-08T08:51:27.145Z,4.30
2022-12-08T08:53:00.265Z,3.38
2022-12-08T08:54:34.107Z,5.15
2022-12-08T08:56:11.313Z,3.50
2022-12-08T08:57:44.593Z,3.40
2022-12-08T08:59:17.739Z,3.10
2022-12-08T09:00:51.767Z,4.05
2022-12-08T09:02:25.344Z,3.75
2022-12-08T09:03:58.863Z,3.10
2022-12-08T09:05:33.414Z,4.85
2022-12-08T09:07:06.695Z,3.72
2022-12-08T09:08:40.835Z,3.00
2022-12-08T09:10:14.049Z,5.00
2022-12-08T09:11:47.746Z,3.85
2022-12-08T09:13:21.151Z,4.03
2022-12-08T09:14:54.249Z,3.72
2022-12-08T09:16:27.981Z,3.90
2022-12-08T09:18:01.293Z,3.92
2022-12-08T09:19:34.518Z,4.03
2022-12-08T09:21:14.957Z,3.67
2022-12-08T09:22:48.370Z,3.75
2022-12-08T09:24:21.508Z,4.20
2022-12-08T09:25:54.586Z,4.60
2022-12-08T09:27:27.772Z,3.58
2022-12-08T09:29:01.033Z,3.38
2022-12-08T09:30:34.154Z,2.97
2022-12-08T09:32:07.559Z,3.70
2022-12-08T09:33:41.080Z,3.30
2022-12-08T09:35:14.417Z,3.10
2022-12-08T09:36:48.901Z,5.53
2022-12-08T09:38:22.102Z,4.18
2022-12-08T09:39:56.165Z,3.30
2022-12-08T09:41:39.251Z,2.70
2022-12-08T09:43:44.021Z,4.03
2022-12-08T09:45:19.622Z,2.97
2022-12-08T09:46:54.660Z,2.40
2022-12-08T09:48:36.660Z,3.40
2022-12-08T09:50:30.770Z,2.60
2022-12-08T09:52:08.084Z,2.97
2022-12-08T09:53:49.638Z,2.70
2022-12-08T09:55:36.817Z,3.35
2022-12-08T09:57:20.241Z,4.00
2022-12-08T09:58:59.241Z,3.05
2022-12-08T10:00:33.837Z,2.47
2022-12-08T10:02:22.103Z,2.58
2022-12-08T10:03:55.941Z,2.90
2022-12-08T10:05:35.260Z,3.30
2022-12-08T10:07:18.796Z,2.72
2022-12-08T10:09:04.086Z,3.00
2022-12-08T10:10:43.799Z,4.10
2022-12-08T10:12:27.010Z,2.65
2022-12-08T10:14:19.037Z,2.63
2022-12-08T10:16:07.529Z,2.45
2022-12-08T10:17:48.341Z,2.78
2022-12-08T10:19:24.959Z,3.85
2022-12-08T10:21:12.501Z,2.63
2022-12-08T10:22:53.433Z,2.33
2022-12-08T10:24:37.187Z,3.05
2022-12-08T10:26:16.938Z,2.33
2022-12-08T10:27:54.194Z,2.78
2022-12-08T10:29:28.441Z,2.40
2022-12-08T10:31:01.748Z,3.72
2022-12-08T10:32:36.490Z,2.45
2022-12-08T10:34:19.228Z,2.47
2022-12-08T10:35:56.202Z,1.80
2022-12-08T10:37:29.489Z,2.78
2022-12-08T10:39:04.008Z,2.83
2022-12-08T10:40:45.303Z,2.80
2022-12-08T10:42:22.658Z,2.50
2022-12-08T10:44:02.513Z,2.30
2022-12-08T10:45:41.776Z,2.53
2022-12-08T10:47:15.497Z,2.63
2022-12-08T10:48:53.061Z,3.13
2022-12-08T10:50:33.876Z,3.72
2022-12-08T10:53:56.293Z,3.00
2022-12-08T10:55:46.236Z,8.05
2022-12-08T10:57:25.250Z,9.88
2022-12-08T10:59:14.666Z,5.97
2022-12-08T11:00:48.993Z,4.85
2022-12-08T11:02:24.134Z,4.30
2022-12-08T11:04:01.297Z,30.83
2022-12-08T11:05:37.194Z,9.88
2022-12-08T11:07:11.874Z,14.18
2022-12-08T11:08:55.139Z,10.07
2022-12-08T11:10:43.271Z,10.35
2022-12-08T11:12:18.916Z,13.20
2022-12-08T11:13:52.659Z,6.53
2022-12-08T11:15:26.507Z,5.43
2022-12-08T11:17:08.285Z,14.18
2022-12-08T11:18:44.665Z,5.32
2022-12-08T11:20:24.215Z,11.43
2022-12-08T11:21:57.396Z,11.10
2022-12-08T11:23:31.778Z,6.03
2022-12-08T11:25:13.369Z,5.70
2022-12-08T11:28:26.604Z,5.57
2022-12-08T11:30:00.417Z,4.68
2022-12-08T11:31:40.588Z,6.90
2022-12-08T11:33:20.058Z,7.93
2022-12-08T11:35:00.274Z,5.30
2022-12-08T11:36:36.473Z,6.72
2022-12-08T11:38:23.200Z,5.03
2022-12-08T11:40:00.374Z,4.65
2022-12-08T11:41:40.067Z,5.68
2022-12-08T11:43:21.684Z,5.75
2022-12-08T11:45:00.860Z,6.20
2022-12-08T11:46:41.230Z,5.32
2022-12-08T11:48:20.641Z,5.53
2022-12-08T11:50:02.871Z,3.90
2022-12-08T11:51:41.513Z,7.32
2022-12-08T11:53:27.392Z,20.05
2022-12-08T11:55:10.327Z,11.48
2022-12-08T11:56:49.284Z,6.20
2022-12-08T11:58:32.813Z,4.45
2022-12-08T12:00:13.306Z,7.53
2022-12-08T12:02:03.097Z,6.65
2022-12-08T12:03:42.688Z,5.80
2022-12-08T12:06:08.808Z,11.52
2022-12-08T12:08:07.003Z,9.65
2022-12-08T12:10:07.274Z,8.70
2022-12-08T12:12:10.246Z,6.60
2022-12-08T12:14:01.834Z,5.57
2022-12-08T12:16:23.413Z,6.43
2022-12-08T12:18:04.178Z,12.50
2022-12-08T12:19:40.968Z,6.78
2022-12-08T12:21:20.189Z,5.88
2022-12-08T12:23:06.627Z,5.75
2022-12-08T12:24:40.976Z,6.93
2022-12-08T12:26:22.762Z,4.82
2022-12-08T12:28:02.036Z,6.85
2022-12-08T12:29:38.579Z,9.63
2022-12-08T12:31:17.642Z,6.20
2022-12-08T12:32:56.680Z,6.45
2022-12-08T12:34:35.183Z,4.85
2022-12-08T12:36:12.095Z,21.05
2022-12-08T12:37:45.357Z,15.32
2022-12-08T12:39:23.972Z,19.65
2022-12-08T12:41:03.494Z,18.33
2022-12-08T12:42:41.771Z,19.15
2022-12-08T12:44:39.366Z,15.38
2022-12-08T12:46:53.280Z,8.90
2022-12-08T12:48:28.273Z,14.13
2022-12-08T12:51:48.654Z,5.43
2022-12-08T12:53:51.968Z,5.68
2022-12-08T12:55:54.576Z,5.13
2022-12-08T12:57:38.828Z,8.77
2022-12-08T12:59:40.838Z,6.10
2022-12-08T13:01:57.330Z,29.52
2022-12-08T13:03:30.685Z,11.55
2022-12-08T13:05:15.609Z,7.93
2022-12-08T13:06:51.370Z,7.13
2022-12-08T13:08:27.779Z,8.18
2022-12-08T13:10:13.033Z,6.35
2022-12-08T13:11:54.265Z,5.88
2022-12-08T13:13:28.309Z,5.57
2022-12-08T13:15:07.173Z,5.38
2022-12-08T13:16:40.961Z,5.55
2022-12-08T13:18:21.889Z,6.82
2022-12-08T13:19:59.621Z,6.43
2022-12-08T13:21:38.001Z,6.00
2022-12-08T13:23:42.172Z,6.65
2022-12-08T13:25:52.377Z,6.00
2022-12-08T13:27:35.969Z,5.45
2022-12-08T13:29:23.648Z,4.63
2022-12-08T13:30:59.385Z,4.68
2022-12-08T13:34:55.962Z,6.18
2022-12-08T13:36:38.573Z,4.80
2022-12-08T13:38:18.236Z,5.78
2022-12-08T13:40:00.079Z,5.13
2022-12-08T13:41:39.712Z,6.03
2022-12-08T13:43:22.903Z,5.75
2022-12-08T13:45:24.243Z,4.70
2022-12-08T13:58:40.993Z,6.18
2022-12-08T14:00:20.191Z,4.65
2022-12-08T14:01:53.659Z,4.32
2022-12-08T14:03:27.507Z,4.22
2022-12-08T14:05:19.116Z,6.35
2022-12-08T14:06:58.883Z,5.05
2022-12-08T14:09:00.009Z,4.00
2022-12-08T14:10:33.280Z,6.32
2022-12-08T14:12:15.757Z,5.95
2022-12-08T14:13:52.425Z,4.50
2022-12-08T14:15:29.174Z,6.05
2022-12-08T14:17:08.170Z,5.72
2022-12-08T14:18:41.342Z,5.22
2022-12-08T14:20:24.615Z,4.95
2022-12-08T14:22:01.613Z,4.80
2022-12-08T14:23:37.740Z,10.10
2022-12-08T14:25:17.323Z,5.70
2022-12-08T14:26:55.160Z,6.05
2022-12-08T14:28:28.416Z,7.63
2022-12-08T14:30:03.700Z,5.25
2022-12-08T14:33:17.342Z,5.38
2022-12-08T14:35:01.435Z,5.32
2022-12-08T14:36:36.206Z,4.38
2022-12-08T14:38:15.857Z,7.20
2022-12-08T14:39:51.696Z,6.07
2022-12-08T14:41:33.393Z,6.47
2022-12-08T14:43:17.759Z,7.68
2022-12-08T14:44:59.272Z,5.13
2022-12-08T14:46:32.462Z,5.63
2022-12-08T14:48:25.317Z,6.55
2022-12-08T14:49:59.137Z,5.90
2022-12-08T14:51:34.237Z,6.78
2022-12-08T14:54:54.187Z,7.18
2022-12-08T14:56:34.193Z,6.30
2022-12-08T14:58:09.175Z,8.20
2022-12-08T14:59:45.592Z,5.95
2022-12-08T15:02:58.309Z,5.70
2022-12-08T15:04:31.514Z,5.88
2022-12-08T15:06:09.467Z,6.57
2022-12-08T15:07:51.758Z,5.50
2022-12-08T15:09:36.080Z,6.72
2022-12-08T15:11:33.605Z,5.72
2022-12-08T15:13:22.611Z,5.45
2022-12-08T15:14:59.544Z,5.30
2022-12-08T15:16:40.936Z,4.50
2022-12-08T15:18:19.554Z,5.30
2022-12-08T15:19:57.857Z,5.65
2022-12-08T15:21:37.762Z,6.35
2022-12-08T15:23:28.358Z,6.75
2022-12-08T15:25:02.225Z,6.05
2022-12-08T15:26:44.431Z,5.70
2022-12-08T15:28:22.972Z,6.20
2022-12-08T15:29:59.156Z,5.05
2022-12-08T15:31:32.438Z,6.13
2022-12-08T15:33:05.857Z,5.38
2022-12-08T15:34:39.156Z,7.55
2022-12-08T15:36:12.936Z,6.22
2022-12-08T15:37:46.270Z,7.03
2022-12-08T15:39:32.195Z,5.75
2022-12-08T15:41:09.053Z,7.35
2022-12-08T15:42:48.742Z,6.75
2022-12-08T15:44:22.751Z,7.72
2022-12-08T15:45:59.926Z,6.47
2022-12-08T15:47:34.814Z,6.25
2022-12-08T15:49:13.509Z,5.88
2022-12-08T15:50:46.872Z,6.05
2022-12-08T15:52:23.651Z,5.72
2022-12-08T15:53:56.806Z,7.00
2022-12-08T15:55:32.071Z,5.57
2022-12-08T15:57:20.233Z,7.63
2022-12-08T15:58:59.785Z,5.25
2022-12-08T16:00:54.659Z,6.10
2022-12-08T16:02:56.272Z,5.70
2022-12-08T16:08:44.672Z,5.22
2022-12-08T16:10:17.357Z,6.07
2022-12-08T16:12:10.164Z,6.63
2022-12-08T16:13:57.863Z,7.55
2022-12-08T16:15:59.721Z,7.22
2022-12-08T16:17:33.079Z,5.43
2022-12-08T16:19:08.358Z,6.72
2022-12-08T16:21:07.424Z,5.00
2022-12-08T16:24:28.192Z,7.25
2022-12-08T16:26:21.910Z,5.93
2022-12-08T16:28:08.366Z,5.28
2022-12-08T16:29:51.226Z,5.18
2022-12-08T16:31:25.970Z,6.70
2022-12-08T16:32:59.201Z,6.68
2022-12-08T16:34:32.575Z,6.47
2022-12-08T16:36:06.100Z,5.95
2022-12-08T16:37:40.184Z,6.47
2022-12-08T16:39:14.732Z,6.30
2022-12-08T16:41:06.041Z,5.95
2022-12-08T16:42:43.354Z,6.82
2022-12-08T16:44:16.564Z,7.72
2022-12-08T16:45:50.196Z,8.18
2022-12-08T16:47:24.685Z,7.75
2022-12-08T16:48:58.787Z,7.70
2022-12-08T16:50:35.330Z,6.45
2022-12-08T16:52:08.691Z,8.07
2022-12-08T16:53:41.812Z,6.00
2022-12-08T16:55:17.285Z,6.35
2022-12-08T16:56:50.375Z,9.27
2022-12-08T16:58:23.466Z,6.35
2022-12-08T16:59:56.620Z,7.43
2022-12-08T17:01:29.943Z,6.03
2022-12-08T17:03:07.853Z,8.60
2022-12-08T17:04:41.132Z,7.63
2022-12-08T17:06:18.544Z,7.10
2022-12-08T17:07:54.467Z,8.48
2022-12-08T17:09:28.384Z,7.75
2022-12-08T17:11:08.421Z,7.43
2022-12-08T17:12:41.902Z,8.15
2022-12-08T17:14:15.289Z,7.18
2022-12-08T17:15:48.380Z,7.90
2022-12-08T17:17:21.519Z,6.35
2022-12-08T17:18:56.120Z,7.38
2022-12-08T17:20:30.008Z,5.53
2022-12-08T17:22:03.472Z,7.05
2022-12-08T17:23:36.702Z,6.15
2022-12-08T17:25:10.644Z,7.95
2022-12-08T17:26:43.864Z,7.28
2022-12-08T17:28:31.210Z,8.48
2022-12-08T17:30:15.650Z,7.32
2022-12-08T17:31:49.279Z,9.20
2022-12-08T17:33:26.739Z,8.38
2022-12-08T17:35:01.643Z,7.38
2022-12-08T17:36:34.934Z,6.68
2022-12-08T17:38:08.117Z,7.53
2022-12-08T17:39:41.565Z,6.47
2022-12-08T17:41:14.658Z,6.95
2022-12-08T17:42:47.812Z,7.78
2022-12-08T17:44:21.248Z,6.00
2022-12-08T17:45:56.108Z,5.85
2022-12-08T17:49:02.208Z,7.75
2022-12-08T17:50:39.601Z,6.25
2022-12-08T17:52:12.789Z,6.32
2022-12-08T17:53:46.049Z,7.35
2022-12-08T17:55:19.209Z,8.52
2022-12-08T17:56:52.924Z,10.35
2022-12-08T17:58:26.978Z,7.25
2022-12-08T18:00:00.157Z,7.53
2022-12-08T18:01:34.396Z,10.25
2022-12-08T18:03:07.538Z,6.28
2022-12-08T18:04:40.685Z,9.00
2022-12-08T18:06:16.006Z,9.43
2022-12-08T18:07:49.314Z,7.80
2022-12-08T18:09:22.730Z,6.50
2022-12-08T18:10:55.900Z,8.00
2022-12-08T18:12:29.182Z,9.07
2022-12-08T18:14:09.427Z,7.53
2022-12-08T18:15:42.904Z,8.70
2022-12-08T18:17:16.507Z,6.97
2022-12-08T18:18:50.582Z,6.90
2022-12-08T18:20:24.560Z,7.65
2022-12-08T18:21:59.528Z,6.72
2022-12-08T18:23:32.717Z,6.60
2022-12-08T18:25:07.383Z,7.70
2022-12-08T18:26:40.915Z,7.35
2022-12-08T18:28:14.034Z,8.05
2022-12-08T18:29:47.146Z,7.53
2022-12-08T18:31:26.008Z,7.47
2022-12-08T18:32:59.220Z,7.13
2022-12-08T18:34:35.617Z,9.10
2022-12-08T18:36:11.093Z,6.25
2022-12-08T18:37:46.844Z,8.65
2022-12-08T18:39:26.836Z,7.53
2022-12-08T18:41:06.660Z,7.75
2022-12-08T18:42:40.459Z,6.82
2022-12-08T18:44:13.637Z,6.82
2022-12-08T18:45:46.904Z,7.28
2022-12-08T18:47:20.749Z,6.90
2022-12-08T18:48:54.272Z,9.90
2022-12-08T18:50:27.736Z,9.38
2022-12-08T18:52:01.100Z,7.72
2022-12-08T18:53:35.865Z,8.45
2022-12-08T18:55:10.938Z,7.82
2022-12-08T18:58:17.730Z,6.82
2022-12-08T18:59:50.987Z,8.13
2022-12-08T19:01:24.231Z,8.75
2022-12-08T19:02:57.547Z,5.97
2022-12-08T19:04:34.696Z,9.38
2022-12-08T19:06:10.402Z,7.68
2022-12-08T19:07:44.783Z,6.72
2022-12-08T19:09:19.857Z,7.97
2022-12-08T19:10:53.292Z,6.60
2022-12-08T19:12:26.877Z,8.80
2022-12-08T19:14:00.041Z,6.72
2022-12-08T19:15:33.868Z,7.85
2022-12-08T19:17:07.957Z,6.82
2022-12-08T19:18:41.291Z,6.53
2022-12-08T19:20:15.537Z,9.18
2022-12-08T19:21:48.905Z,9.25
2022-12-08T19:23:22.017Z,8.25
2022-12-08T19:24:56.709Z,9.05
2022-12-08T19:26:30.367Z,9.15
2022-12-08T19:28:04.184Z,10.45
2022-12-08T19:29:37.520Z,9.82
2022-12-08T19:31:11.983Z,8.32
2022-12-08T19:32:45.300Z,9.30
2022-12-08T19:34:19.072Z,7.40
2022-12-08T19:35:53.036Z,7.50
2022-12-08T19:37:26.253Z,6.97
2022-12-08T19:39:17.101Z,10.07
2022-12-08T19:41:09.297Z,11.02
2022-12-08T19:42:59.498Z,8.45
2022-12-08T19:44:50.734Z,7.07
2022-12-08T19:46:29.039Z,7.15
2022-12-08T19:48:02.336Z,6.15
2022-12-08T19:49:35.801Z,9.18
2022-12-08T19:51:09.300Z,6.00
2022-12-08T19:52:44.114Z,6.70
2022-12-08T19:54:17.334Z,9.07
2022-12-08T19:55:52.307Z,9.20
2022-12-08T19:58:58.389Z,7.38
2022-12-08T20:00:33.662Z,6.50
2022-12-08T20:02:07.480Z,6.63
2022-12-08T20:03:40.753Z,8.57
2022-12-08T20:05:15.361Z,8.73
2022-12-08T20:06:48.693Z,7.88
2022-12-08T20:08:22.155Z,11.02
2022-12-08T20:09:55.447Z,6.50
2022-12-08T20:11:34.363Z,7.20
2022-12-08T20:13:27.415Z,9.90
2022-12-08T20:15:03.500Z,7.72
2022-12-08T20:16:37.600Z,7.55
2022-12-08T20:18:11.795Z,9.85
2022-12-08T20:19:45.288Z,9.93
2022-12-08T20:21:20.500Z,7.40
2022-12-08T20:22:53.698Z,12.55
2022-12-08T20:24:26.814Z,9.20
2022-12-08T20:26:00.577Z,8.85
2022-12-08T20:27:35.639Z,7.85
2022-12-08T20:29:08.990Z,12.88
2022-12-08T20:30:46.696Z,10.68
2022-12-08T20:32:20.068Z,9.60
2022-12-08T20:33:54.148Z,10.80
2022-12-08T20:35:27.378Z,9.85
2022-12-08T20:37:00.486Z,10.30
2022-12-08T20:38:33.855Z,10.05
2022-12-08T20:40:09.243Z,9.90
2022-12-08T20:41:43.128Z,8.32
2022-12-08T20:43:17.602Z,8.27
2022-12-08T20:44:53.897Z,8.60
2022-12-08T20:46:28.062Z,6.55
2022-12-08T20:48:01.334Z,8.02
2022-12-08T20:49:35.172Z,8.35
2022-12-08T20:51:08.685Z,7.45
2022-12-08T20:52:42.117Z,7.82
2022-12-08T20:54:15.273Z,9.40
2022-12-08T20:55:50.390Z,9.82
2022-12-08T20:57:23.589Z,8.60
2022-12-08T20:59:02.341Z,9.05
2022-12-08T21:00:36.334Z,7.30
2022-12-08T21:02:16.664Z,8.60
2022-12-08T21:03:51.425Z,9.95
2022-12-08T21:05:25.446Z,9.23
2022-12-08T21:07:00.318Z,8.48
2022-12-08T21:08:34.116Z,10.23
2022-12-08T21:10:11.644Z,11.48
2022-12-08T21:11:45.788Z,9.75
2022-12-08T21:13:19.181Z,8.85
2022-12-08T21:14:54.020Z,10.07
2022-12-08T21:16:27.606Z,8.38
2022-12-08T21:18:01.244Z,10.05
2022-12-08T21:19:34.742Z,11.07
2022-12-08T21:21:11.309Z,12.15
2022-12-08T21:22:45.248Z,16.35
2022-12-08T21:24:18.778Z,16.23
2022-12-08T21:25:52.359Z,11.00
2022-12-08T21:27:28.502Z,11.77
2022-12-08T21:29:01.716Z,10.23
2022-12-08T21:30:40.141Z,9.27
2022-12-08T21:32:13.631Z,10.55
2022-12-08T21:33:47.092Z,12.68
2022-12-08T21:35:20.432Z,12.10
2022-12-08T21:36:53.877Z,11.18
2022-12-08T21:38:27.073Z,10.20
2022-12-08T21:40:00.307Z,8.60
2022-12-08T21:41:51.011Z,10.02
2022-12-08T21:43:25.470Z,8.18
2022-12-08T21:44:59.496Z,11.13
2022-12-08T21:46:36.873Z,10.55
2022-12-08T21:49:45.624Z,11.77
2022-12-08T21:51:18.786Z,10.38
2022-12-08T21:52:52.295Z,10.45
2022-12-08T21:54:25.898Z,10.82
2022-12-08T21:55:59.141Z,8.48
2022-12-08T21:57:32.658Z,11.93
2022-12-08T21:59:05.827Z,10.65
2022-12-08T22:00:39.268Z,9.68
2022-12-08T22:02:20.939Z,9.82
2022-12-08T22:03:55.930Z,9.40
2022-12-08T22:05:29.241Z,9.60
2022-12-08T22:07:02.584Z,8.38
2022-12-08T22:08:35.990Z,9.30
2022-12-08T22:10:11.702Z,12.02
2022-12-08T22:11:45.942Z,9.20
2022-12-08T22:13:19.277Z,9.02
2022-12-08T22:14:52.466Z,11.95
2022-12-08T22:16:25.911Z,8.32
2022-12-08T22:18:00.633Z,10.80